Time;durP1;ratioP1;P1;durP2;ratioP2;P2;SDS_P1;SDS_P2;PMS_P1;PMS_P2;Temp;Humidity;BMP_temperature;BMP_pressure;BME280_temperature;BME280_humidity;BME280_pressure;Samples;Min_cycle;Max_cycle;Signal;HPM_P1;HPM_P2
2023/03/22 00:00:57;;;;;;;5.75;4.60;;;9.20;99.90;;;10.09;93.26;97753.97;5238207;28;20196;-62
2023/03/22 00:03:31;;;;;;;5.35;4.85;;;9.20;99.90;;;10.04;92.99;97754.50;5236009;28;20286;-61
2023/03/22 00:06:06;;;;;;;4.57;4.28;;;9.10;99.90;;;9.99;93.50;97755.94;5240287;28;20236;-63
2023/03/22 00:08:40;;;;;;;5.03;4.07;;;9.10;99.90;;;9.93;92.73;97767.53;5241703;28;20229;-62
2023/03/22 00:11:13;;;;;;;5.95;4.97;;;9.00;99.90;;;9.83;92.71;97765.22;5236738;28;20200;-61
2023/03/22 00:13:46;;;;;;;5.38;4.38;;;8.90;99.90;;;9.76;92.94;97763.13;5234173;28;20224;-62
2023/03/22 00:16:19;;;;;;;5.32;4.93;;;8.80;99.90;;;9.68;94.27;97759.25;5235122;28;20841;-61
2023/03/22 00:18:52;;;;;;;5.47;4.97;;;8.70;99.90;;;9.58;93.70;97765.44;5236652;28;20201;-61
2023/03/22 00:21:27;;;;;;;4.72;4.32;;;8.60;99.90;;;9.56;94.46;97763.63;5236247;28;20232;-62
2023/03/22 00:24:00;;;;;;;5.27;4.57;;;8.60;99.90;;;9.51;94.37;97775.22;5238180;28;20227;-61
2023/03/22 00:26:33;;;;;;;5.20;4.63;;;8.60;99.90;;;9.44;94.15;97767.22;5231545;28;20201;-61
2023/03/22 00:29:06;;;;;;;5.77;4.70;;;8.50;99.90;;;9.36;94.81;97763.31;5236117;28;20212;-62
2023/03/22 00:31:39;;;;;;;6.03;4.97;;;8.40;99.90;;;9.28;94.73;97763.66;5235084;28;20208;-61
2023/03/22 00:34:13;;;;;;;5.03;4.53;;;8.30;99.90;;;9.23;94.70;97760.81;5238698;28;20226;-61
2023/03/22 00:36:47;;;;;;;5.27;4.77;;;8.30;99.90;;;9.20;94.82;97752.97;5237973;28;20204;-61
2023/03/22 00:39:20;;;;;;;5.60;5.20;;;8.30;99.90;;;9.18;95.09;97746.88;5237061;28;20641;-61
2023/03/22 00:41:54;;;;;;;6.03;5.53;;;8.30;99.90;;;9.13;94.95;97750.81;5239113;28;20204;-61
2023/03/22 00:44:27;;;;;;;6.40;5.40;;;8.20;99.90;;;9.10;95.33;97741.34;5238992;28;20738;-61
2023/03/22 00:47:00;;;;;;;5.77;5.20;;;8.20;99.90;;;8.99;95.11;97743.25;5234909;28;20209;-61
2023/03/22 00:49:34;;;;;;;5.97;5.47;;;8.10;99.90;;;8.96;95.25;97748.16;5233292;28;20199;-62
2023/03/22 00:52:08;;;;;;;6.07;5.53;;;8.10;99.90;;;8.92;95.02;97737.66;5233042;28;20284;-61
2023/03/22 00:54:41;;;;;;;5.67;4.70;;;8.00;99.90;;;8.86;94.81;97745.81;5225113;28;20243;-61
2023/03/22 00:57:15;;;;;;;5.67;5.17;;;7.90;99.90;;;8.73;94.45;97740.75;5236776;28;20196;-61
2023/03/22 00:59:48;;;;;;;5.60;5.10;;;7.70;99.90;;;8.61;94.63;97743.41;5241510;28;20201;-61
2023/03/22 01:02:28;;;;;;;6.03;5.43;;;7.70;99.90;;;8.61;95.09;97743.41;5234693;28;20284;-61
2023/03/22 01:05:01;;;;;;;5.83;5.23;;;7.70;99.90;;;8.58;95.38;97740.66;5237651;28;20594;-62
2023/03/22 01:07:40;;;;;;;4.90;4.53;;;7.70;99.90;;;8.58;95.56;97735.56;5240796;28;20656;-60
2023/03/22 01:10:13;;;;;;;5.40;4.90;;;7.70;99.90;;;8.54;95.60;97742.13;5233135;28;20247;-61
2023/03/22 01:12:46;;;;;;;6.30;5.00;;;7.60;99.90;;;8.50;96.24;97740.19;5235042;28;20244;-62
2023/03/22 01:15:21;;;;;;;5.53;5.13;;;7.60;99.90;;;8.43;96.63;97739.72;5241547;28;20696;-61
2023/03/22 01:17:54;;;;;;;5.83;5.33;;;7.60;99.90;;;8.39;96.60;97733.56;5238776;28;20208;-61
2023/03/22 01:20:28;;;;;;;6.07;4.80;;;7.50;99.90;;;8.35;96.99;97736.63;5236790;28;20267;-61
2023/03/22 01:23:02;;;;;;;6.63;5.17;;;7.50;99.90;;;8.34;96.96;97735.75;5240198;28;20193;-61
2023/03/22 01:25:35;;;;;;;5.23;4.83;;;7.50;99.90;;;8.32;97.34;97732.22;5239220;28;20601;-62
2023/03/22 01:28:09;;;;;;;6.27;5.03;;;7.50;99.90;;;8.29;96.93;97723.50;5242341;28;20200;-63
2023/03/22 01:30:42;;;;;;;5.53;4.50;;;7.40;99.90;;;8.22;97.00;97729.00;5240012;28;20283;-62
2023/03/22 01:33:15;;;;;;;5.30;4.87;;;7.30;99.90;;;8.15;97.20;97721.75;5239550;28;20209;-64
2023/03/22 01:35:48;;;;;;;5.50;5.00;;;7.30;99.90;;;8.13;97.18;97719.13;5235750;28;20522;-64
2023/03/22 01:38:22;;;;;;;5.43;4.93;;;7.20;99.90;;;8.04;97.25;97716.88;5232760;28;20212;-64
2023/03/22 01:40:56;;;;;;;5.57;5.10;;;7.20;99.90;;;8.03;97.50;97720.19;5236229;28;20234;-64
2023/03/22 01:43:29;;;;;;;6.17;5.17;;;7.20;99.90;;;8.04;97.60;97719.41;5241604;28;20229;-64
2023/03/22 01:46:02;;;;;;;5.50;5.00;;;7.20;99.90;;;8.07;97.67;97711.97;5235180;28;20642;-63
2023/03/22 01:48:40;;;;;;;5.47;4.87;;;7.20;99.90;;;8.04;97.82;97715.97;5230965;28;20212;-63
2023/03/22 01:51:17;;;;;;;5.13;4.63;;;7.20;99.90;;;7.96;97.89;97707.00;5236174;28;20208;-62
2023/03/22 01:53:58;;;;;;;4.70;4.30;;;7.10;99.90;;;7.94;98.90;97701.78;5234118;28;20349;-64
2023/03/22 01:56:34;;;;;;;5.67;5.10;;;7.10;99.90;;;7.92;98.07;97705.00;5240601;28;20196;-63
2023/03/22 01:59:11;;;;;;;4.83;4.43;;;7.10;99.90;;;7.81;98.44;97704.31;5233222;28;20212;-63
2023/03/22 02:01:45;;;;;;;5.47;5.03;;;7.00;99.90;;;7.81;98.90;97696.66;5240481;28;20207;-64
2023/03/22 02:04:22;;;;;;;6.07;5.53;;;7.00;99.90;;;7.83;98.72;97695.13;5241638;28;20220;-63
2023/03/22 02:06:55;;;;;;;5.43;4.93;;;7.00;99.90;;;7.82;98.77;97698.47;5234874;28;20295;-63
2023/03/22 02:09:30;;;;;;;5.30;4.90;;;7.00;99.90;;;7.78;98.31;97686.28;5250480;28;20207;-64
2023/03/22 02:12:16;;;;;;;6.20;5.03;;;6.90;99.90;;;7.73;98.18;97690.22;5239719;28;20192;-63
2023/03/22 02:15:04;;;;;;;5.73;5.23;;;6.90;99.90;;;7.65;99.23;97690.59;5241047;28;20216;-63
2023/03/22 02:17:51;;;;;;;5.53;5.03;;;6.80;99.90;;;7.62;98.38;97685.31;5241140;28;20204;-63
2023/03/22 02:21:00;;;;;;;5.70;5.20;;;6.80;99.90;;;7.63;98.33;97679.44;5235079;28;20613;-63
2023/03/22 02:24:13;;;;;;;5.07;4.67;;;6.80;99.90;;;7.55;98.73;97680.59;5239146;28;20236;-63
2023/03/22 02:27:23;;;;;;;5.77;5.27;;;6.70;99.90;;;7.41;98.82;97678.81;5235415;28;20227;-64
2023/03/22 02:30:16;;;;;;;5.57;5.17;;;6.60;99.90;;;7.41;99.05;97679.72;5235258;28;20204;-63
2023/03/22 02:33:23;;;;;;;6.10;5.50;;;6.60;99.90;;;7.43;99.64;97678.13;5230538;28;20677;-63
2023/03/22 02:36:23;;;;;;;5.53;5.03;;;6.60;99.90;;;7.44;99.24;97679.03;5220930;28;20200;-63
2023/03/22 02:39:20;;;;;;;5.87;5.40;;;6.60;99.90;;;7.37;100.00;97676.84;5238895;28;20211;-63
2023/03/22 02:42:08;;;;;;;5.70;5.20;;;6.50;99.90;;;7.35;99.62;97671.66;5236758;28;20664;-63
2023/03/22 02:44:44;;;;;;;5.90;5.40;;;6.50;99.90;;;7.30;99.95;97673.03;5237299;28;20220;-63
2023/03/22 02:47:24;;;;;;;5.93;5.50;;;6.40;99.90;;;7.29;98.87;97672.91;5238600;28;20192;-63
2023/03/22 02:50:04;;;;;;;5.50;5.00;;;6.30;99.90;;;7.27;98.94;97669.38;5231922;28;20286;-63
2023/03/22 02:52:42;;;;;;;5.90;4.80;;;6.30;99.90;;;7.20;98.78;97674.06;5237462;28;20679;-63
2023/03/22 02:55:23;;;;;;;6.00;5.43;;;6.20;99.90;;;7.18;98.53;97670.56;5231970;28;20221;-63
2023/03/22 02:58:02;;;;;;;5.43;4.93;;;6.20;99.90;;;7.09;98.40;97677.53;5238855;28;20246;-63
2023/03/22 03:00:37;;;;;;;5.30;4.90;;;6.20;99.90;;;7.05;99.21;97672.16;5232965;28;20249;-63
2023/03/22 03:03:17;;;;;;;5.23;4.50;;;6.20;99.90;;;7.01;99.59;97671.09;5235856;28;20216;-64
2023/03/22 03:05:54;;;;;;;5.77;5.23;;;6.10;99.90;;;6.95;98.91;97678.25;5237524;28;20251;-63
2023/03/22 03:08:29;;;;;;;5.77;5.23;;;6.10;99.90;;;6.92;99.13;97672.97;5234263;28;20298;-63
2023/03/22 03:11:03;;;;;;;5.87;5.33;;;6.10;99.90;;;6.91;99.22;97668.69;5233920;28;20207;-62
2023/03/22 03:13:36;;;;;;;6.17;5.60;;;6.10;99.90;;;6.88;100.00;97673.56;5232466;28;20220;-63
2023/03/22 03:16:16;;;;;;;5.57;5.07;;;6.10;99.90;;;6.85;100.00;97673.34;5237834;28;20284;-64
2023/03/22 03:18:56;;;;;;;5.27;4.80;;;6.10;99.90;;;6.84;100.00;97674.09;5238918;28;20205;-63
2023/03/22 03:21:35;;;;;;;6.53;6.03;;;6.10;99.90;;;6.85;100.00;97669.16;5234309;28;20292;-62
2023/03/22 03:24:21;;;;;;;6.27;5.80;;;6.10;99.90;;;6.89;100.00;97670.22;5235458;28;20224;-64
2023/03/22 03:27:02;;;;;;;6.17;5.70;;;6.10;99.90;;;6.88;100.00;97679.50;5236380;28;20225;-63
2023/03/22 03:29:42;;;;;;;5.63;5.13;;;6.00;99.90;;;6.85;100.00;97675.91;5235563;28;20233;-63
2023/03/22 03:32:24;;;;;;;6.27;5.67;;;6.00;99.90;;;6.86;100.00;97675.09;5242555;28;20295;-63
2023/03/22 03:35:04;;;;;;;6.07;5.40;;;6.00;99.90;;;6.85;100.00;97676.78;5230617;28;20708;-63
2023/03/22 03:37:41;;;;;;;5.53;5.00;;;6.00;99.90;;;6.80;100.00;97679.78;5235262;28;20320;-63
2023/03/22 03:40:18;;;;;;;5.73;5.33;;;5.90;99.90;;;6.78;100.00;97674.56;5234350;28;20307;-64
2023/03/22 03:42:56;;;;;;;5.73;5.17;;;5.90;99.90;;;6.71;100.00;97675.81;5237366;28;20228;-63
2023/03/22 03:45:30;;;;;;;6.03;5.27;;;5.90;99.90;;;6.65;100.00;97680.47;5237348;28;20674;-63
2023/03/22 03:48:08;;;;;;;5.33;4.93;;;5.80;99.90;;;6.65;100.00;97687.22;5238649;28;20197;-64
2023/03/22 03:50:42;;;;;;;5.57;5.17;;;5.80;99.90;;;6.59;100.00;97685.13;5237246;28;20519;-63
2023/03/22 03:53:15;;;;;;;5.70;5.20;;;5.70;99.90;;;6.52;100.00;97683.84;5234583;28;20197;-63
2023/03/22 03:55:48;;;;;;;5.23;4.83;;;5.70;99.90;;;6.51;100.00;97682.06;5235980;28;20201;-63
2023/03/22 03:58:22;;;;;;;5.10;4.70;;;5.70;99.90;;;6.54;100.00;97689.00;5232099;28;20193;-63
2023/03/22 04:00:56;;;;;;;5.80;5.30;;;5.70;99.90;;;6.52;100.00;97694.00;5231847;28;20330;-62
2023/03/22 04:03:29;;;;;;;5.80;5.30;;;5.70;99.90;;;6.55;100.00;97685.69;5234464;28;20656;-63
2023/03/22 04:06:02;;;;;;;6.10;5.60;;;5.70;99.90;;;6.49;100.00;97688.69;5238429;28;20228;-63
2023/03/22 04:08:36;;;;;;;5.80;5.30;;;5.60;99.90;;;6.49;100.00;97692.88;5236735;28;20209;-62
2023/03/22 04:11:09;;;;;;;5.90;5.47;;;5.60;99.90;;;6.46;100.00;97692.66;5235979;28;20292;-63
2023/03/22 04:13:43;;;;;;;5.93;5.37;;;5.60;99.90;;;6.49;100.00;97692.88;5228554;28;20224;-63
2023/03/22 04:16:16;;;;;;;6.00;5.43;;;5.60;99.90;;;6.48;100.00;97691.13;5235249;28;20291;-63
2023/03/22 04:18:49;;;;;;;5.90;5.33;;;5.60;99.90;;;6.47;100.00;97682.63;5232041;28;20630;-63
2023/03/22 04:21:22;;;;;;;5.37;5.00;;;5.60;99.90;;;6.41;99.98;97688.91;5238429;28;20250;-62
2023/03/22 04:23:55;;;;;;;6.07;5.57;;;5.50;99.90;;;6.37;100.00;97686.94;5232502;28;20224;-61
2023/03/22 04:26:28;;;;;;;5.57;5.00;;;5.50;99.90;;;6.34;100.00;97689.28;5234695;28;20962;-63
2023/03/22 04:29:04;;;;;;;5.70;5.30;;;5.40;99.90;;;6.28;99.23;97687.19;5237105;28;20201;-64
2023/03/22 04:31:37;;;;;;;5.47;5.00;;;5.40;99.90;;;6.25;99.46;97692.94;5236820;28;20196;-64
2023/03/22 04:34:10;;;;;;;5.80;5.30;;;5.40;99.90;;;6.22;100.00;97696.91;5237537;28;20749;-64
2023/03/22 04:36:44;;;;;;;6.63;5.70;;;5.40;99.90;;;6.16;100.00;97681.25;5236615;28;20201;-61
2023/03/22 04:39:18;;;;;;;6.90;6.37;;;5.40;99.90;;;6.18;100.00;97685.66;5232228;28;20204;-63
2023/03/22 04:41:51;;;;;;;7.00;6.30;;;5.40;99.90;;;6.17;100.00;97678.81;5236790;28;20207;-63
2023/03/22 04:44:25;;;;;;;7.70;7.00;;;5.40;99.90;;;6.14;100.00;97688.75;5233890;28;21008;-64
2023/03/22 04:46:58;;;;;;;7.10;6.50;;;5.30;99.90;;;6.11;100.00;97683.44;5240484;28;20216;-64
2023/03/22 04:49:32;;;;;;;7.13;6.43;;;5.30;99.90;;;6.14;100.00;97688.75;5233979;28;20193;-63
2023/03/22 04:52:05;;;;;;;6.63;6.00;;;5.30;99.90;;;6.14;100.00;97686.22;5240164;28;20204;-63
2023/03/22 04:54:38;;;;;;;7.07;6.47;;;5.30;99.90;;;6.11;100.00;97691.06;5237052;28;20236;-63
2023/03/22 04:57:11;;;;;;;6.77;6.27;;;5.30;99.90;;;6.12;100.00;97692.81;5233604;28;20704;-63
2023/03/22 04:59:45;;;;;;;5.93;5.43;;;5.30;99.90;;;6.15;100.00;97684.53;5234996;28;20207;-63
2023/03/22 05:02:18;;;;;;;6.97;6.13;;;5.20;99.90;;;6.10;99.39;97686.78;5234773;28;20204;-62
2023/03/22 05:04:52;;;;;;;6.17;5.73;;;5.20;99.90;;;6.07;98.84;97689.09;5233667;28;20759;-63
2023/03/22 05:07:26;;;;;;;6.40;5.80;;;5.10;99.90;;;5.98;98.79;97686.78;5241554;28;20224;-62
2023/03/22 05:09:59;;;;;;;6.43;5.93;;;5.10;99.90;;;5.94;99.18;97683.91;5235488;28;20196;-63
2023/03/22 05:12:32;;;;;;;6.47;5.87;;;5.00;99.90;;;5.87;98.57;97680.91;5237085;28;20292;-62
2023/03/22 05:15:08;;;;;;;6.63;6.00;;;5.00;99.90;;;5.67;99.37;97673.50;5240540;28;20231;-63
2023/03/22 05:17:41;;;;;;;7.00;6.23;;;4.90;99.90;;;5.70;100.00;97677.94;5246534;28;20202;-61
2023/03/22 05:20:14;;;;;;;7.53;6.73;;;4.90;99.90;;;5.76;100.00;97679.25;5246603;28;20666;-62
2023/03/22 05:22:49;;;;;;;7.77;7.17;;;5.00;99.90;;;5.70;100.00;97673.72;5237354;28;20209;-63
2023/03/22 05:25:22;;;;;;;9.70;8.73;;;4.90;99.90;;;5.69;100.00;97671.94;5237201;28;20267;-61
2023/03/22 05:28:00;;;;;;;8.83;8.03;;;5.00;99.90;;;5.73;100.00;97663.81;5236099;28;20609;-62
2023/03/22 05:30:35;;;;;;;9.63;8.73;;;5.00;99.90;;;5.71;100.00;97669.53;5236412;28;20309;-63
2023/03/22 05:33:09;;;;;;;8.33;7.67;;;5.00;99.90;;;5.78;100.00;97669.19;5237525;28;20296;-62
2023/03/22 05:35:42;;;;;;;9.77;8.87;;;5.10;99.90;;;5.86;100.00;97663.91;5240600;28;20204;-63
2023/03/22 05:38:16;;;;;;;9.40;8.60;;;5.10;99.90;;;5.85;100.00;97669.75;5241778;28;20702;-62
2023/03/22 05:40:49;;;;;;;9.70;8.80;;;5.10;99.90;;;5.88;100.00;97672.50;5241758;28;20754;-62
2023/03/22 05:43:22;;;;;;;8.00;7.30;;;5.20;99.90;;;5.99;100.00;97669.91;5240424;28;20229;-63
2023/03/22 05:45:57;;;;;;;7.83;7.13;;;5.10;99.90;;;5.96;100.00;97667.16;5239055;28;21027;-62
2023/03/22 05:48:30;;;;;;;7.57;6.97;;;5.10;99.90;;;5.99;100.00;97664.84;5245698;28;20783;-63
2023/03/22 05:51:05;;;;;;;8.00;7.20;;;5.10;99.90;;;5.97;100.00;97663.81;5243848;28;20567;-63
2023/03/22 05:53:39;;;;;;;8.20;7.60;;;5.10;99.90;;;5.98;100.00;97665.59;5239058;28;20228;-63
2023/03/22 05:56:12;;;;;;;8.10;7.40;;;5.10;99.90;;;5.97;100.00;97658.75;5235398;28;20825;-62
2023/03/22 05:58:45;;;;;;;8.80;8.00;;;5.00;99.90;;;6.00;100.00;97654.78;5237958;28;20218;-64
2023/03/22 06:01:20;;;;;;;9.23;7.90;;;5.10;99.90;;;6.03;99.85;97661.72;5239417;28;20203;-61
2023/03/22 06:03:53;;;;;;;8.53;7.83;;;5.10;99.90;;;6.07;99.91;97651.91;5236649;28;20220;-62
2023/03/22 06:06:27;;;;;;;9.00;8.10;;;5.20;99.90;;;6.09;99.64;97645.31;5239349;28;20201;-62
2023/03/22 06:09:00;;;;;;;8.40;7.70;;;5.20;99.90;;;6.15;99.29;97642.28;5239433;28;20681;-62
2023/03/22 06:11:48;;;;;;;7.70;7.00;;;5.20;99.90;;;6.18;99.09;97637.47;5239317;28;20212;-63
2023/03/22 06:14:22;;;;;;;8.10;7.40;;;5.20;99.90;;;6.16;99.67;97636.47;5242456;28;20234;-62
2023/03/22 06:16:56;;;;;;;7.97;7.20;;;5.30;99.90;;;6.29;99.85;97633.97;5239208;28;20216;-63
2023/03/22 06:19:29;;;;;;;7.83;7.13;;;5.40;99.90;;;6.41;99.17;97635.63;5237004;28;20204;-63
2023/03/22 06:22:03;;;;;;;7.43;6.90;;;5.40;99.90;;;6.54;98.31;97635.69;5239434;28;20204;-63
2023/03/22 06:24:36;;;;;;;7.20;6.53;;;5.50;99.90;;;6.76;97.81;97643.13;5235708;28;20217;-62
2023/03/22 06:27:10;;;;;;;7.13;6.43;;;5.60;99.90;;;7.05;96.01;97636.59;5240082;28;20315;-62
2023/03/22 06:29:43;;;;;;;7.20;6.50;;;5.80;99.90;;;7.26;95.22;97639.66;5242811;28;20197;-63
2023/03/22 06:32:17;;;;;;;7.47;6.83;;;5.90;99.90;;;7.53;94.46;97638.06;5239873;28;20200;-62
2023/03/22 06:34:51;;;;;;;7.23;6.67;;;6.20;99.90;;;7.89;92.87;97642.06;5239797;28;20242;-63
2023/03/22 06:37:24;;;;;;;7.67;6.97;;;6.50;99.90;;;8.22;91.82;97642.47;5240633;28;20204;-62
2023/03/22 06:39:58;;;;;;;8.20;7.47;;;6.70;99.90;;;8.56;89.64;97646.31;5239051;28;20291;-62
2023/03/22 06:42:32;;;;;;;7.33;6.60;;;7.00;99.90;;;8.88;88.25;97637.19;5231015;28;20528;-63
2023/03/22 06:45:07;;;;;;;7.40;6.80;;;7.40;99.90;;;9.22;86.55;97639.19;5241271;28;20285;-61
2023/03/22 06:47:42;;;;;;;7.23;6.73;;;7.60;99.90;;;9.61;83.68;97644.81;5237113;28;20220;-63
2023/03/22 06:50:15;;;;;;;7.57;6.73;;;7.90;99.90;;;9.87;83.68;97643.75;5241710;28;20656;-63
2023/03/22 06:52:48;;;;;;;6.60;6.07;;;8.10;99.90;;;10.10;80.87;97640.81;5242497;28;20696;-63
2023/03/22 06:55:21;;;;;;;6.93;6.40;;;8.30;99.90;;;10.25;80.31;97652.69;5232717;28;20231;-63
2023/03/22 06:57:54;;;;;;;7.97;7.27;;;8.30;99.90;;;10.58;79.04;97651.97;5241148;28;20197;-62
2023/03/22 07:00:27;;;;;;;10.03;8.30;;;8.40;99.90;;;11.06;75.97;97654.47;5229999;28;20209;-63
2023/03/22 07:03:02;;;;;;;7.88;7.07;;;8.70;99.90;;;11.59;75.14;97658.88;5238567;28;20735;-63
2023/03/22 07:05:35;;;;;;;8.52;7.82;;;9.00;99.90;;;11.81;72.82;97665.91;5236054;28;20290;-62
2023/03/22 07:08:08;;;;;;;7.75;6.85;;;9.30;99.90;;;12.21;71.44;97656.75;5240993;28;20220;-63
2023/03/22 07:10:42;;;;;;;7.68;7.07;;;9.60;99.90;;;12.30;70.82;97660.59;5237859;28;20239;-63
2023/03/22 07:13:15;;;;;;;7.63;6.93;;;9.70;99.90;;;12.05;71.83;97671.41;5242215;28;20651;-63
2023/03/22 07:15:48;;;;;;;8.48;7.70;;;9.90;99.90;;;11.94;71.72;97658.06;5235092;28;20196;-63
2023/03/22 07:18:23;;;;;;;7.53;6.78;;;10.00;99.90;;;11.86;72.85;97661.94;5239728;28;20604;-62
2023/03/22 07:20:56;;;;;;;8.05;7.35;;;10.00;99.90;;;11.91;74.49;97657.03;5241093;28;20294;-62
2023/03/22 07:23:29;;;;;;;8.80;8.00;;;10.30;99.90;;;11.90;74.60;97655.25;5240368;28;20217;-62
2023/03/22 07:26:02;;;;;;;8.20;7.50;;;10.40;99.90;;;12.10;74.75;97653.66;5234474;28;20206;-63
2023/03/22 07:28:35;;;;;;;7.68;7.00;;;10.50;99.90;;;12.25;74.09;97648.41;5246874;28;20224;-63
2023/03/22 07:31:10;;;;;;;8.40;7.60;;;10.70;99.90;;;12.43;73.34;97654.38;5241614;28;20207;-63
2023/03/22 07:33:45;;;;;;;7.22;6.57;;;11.10;99.90;;;12.59;72.10;97656.84;5239684;28;20246;-64
2023/03/22 07:36:22;;;;;;;7.25;6.60;;;11.40;99.90;;;13.03;71.07;97646.81;5237119;28;20672;-63
2023/03/22 07:38:55;;;;;;;6.88;6.38;;;11.60;99.90;;;13.19;69.50;97643.22;5242945;28;20201;-63
2023/03/22 07:41:29;;;;;;;7.68;6.97;;;11.80;99.90;;;13.37;69.57;97646.63;5235919;28;20588;-63
2023/03/22 07:44:02;;;;;;;7.25;6.65;;;12.00;99.90;;;13.48;70.00;97644.53;5245229;28;20247;-63
2023/03/22 07:46:51;;;;;;;7.07;6.38;;;12.20;99.90;;;13.71;67.55;97650.63;5229848;28;20291;-63
2023/03/22 07:49:26;;;;;;;7.63;6.82;;;12.40;99.90;;;13.74;68.87;97646.47;5233357;28;20262;-63
2023/03/22 07:51:59;;;;;;;8.70;6.68;;;12.50;99.90;;;14.02;67.73;97647.59;5229750;28;20201;-63
2023/03/22 07:54:32;;;;;;;6.97;6.38;;;12.70;99.90;;;14.08;67.97;97645.28;5234291;28;20746;-63
2023/03/22 07:57:07;;;;;;;7.30;6.60;;;12.80;99.90;;;14.15;68.52;97642.13;5234517;28;20645;-63
2023/03/22 07:59:40;;;;;;;6.82;6.20;;;12.90;99.90;;;14.27;68.15;97644.28;5232440;28;20192;-63
2023/03/22 08:02:13;;;;;;;6.18;5.60;;;13.10;99.90;;;14.52;67.26;97642.69;5257906;28;20640;-63
2023/03/22 08:04:49;;;;;;;6.82;5.97;;;13.40;99.90;;;14.84;66.33;97644.75;5234918;28;20217;-63
2023/03/22 08:07:25;;;;;;;6.43;5.78;;;13.70;99.90;;;14.87;65.09;97642.31;5233310;28;20235;-63
2023/03/22 08:09:58;;;;;;;6.80;6.20;;;13.80;99.90;;;14.93;65.86;97645.94;5229784;28;20221;-63
2023/03/22 08:12:32;;;;;;;6.63;5.97;;;13.90;99.90;;;15.12;64.94;97643.19;5252100;28;20205;-64
2023/03/22 08:15:06;;;;;;;6.38;5.88;;;14.00;99.90;;;15.28;64.89;97648.09;5240903;28;20227;-63
2023/03/22 08:17:40;;;;;;;5.30;4.93;;;14.20;99.90;;;15.45;63.54;97647.78;5238943;28;20204;-63
2023/03/22 08:20:17;;;;;;;6.15;5.50;;;14.40;99.90;;;15.59;62.70;97646.53;5243926;28;21749;-63
2023/03/22 08:22:50;;;;;;;6.72;5.22;;;14.60;99.90;;;15.78;61.70;97653.22;5238227;28;20570;-63
2023/03/22 08:25:23;;;;;;;5.35;4.75;;;15.00;99.90;;;16.02;59.77;97650.56;5245425;28;20692;-63
2023/03/22 08:27:56;;;;;;;4.68;4.28;;;15.20;99.90;;;16.32;58.42;97652.38;5256831;28;20694;-64
2023/03/22 08:30:29;;;;;;;5.00;3.60;;;15.60;99.90;;;16.49;54.66;97648.63;5232680;28;20200;-64
2023/03/22 08:33:02;;;;;;;3.80;3.50;;;15.80;99.90;;;16.56;54.06;97647.94;5229530;28;20197;-63
2023/03/22 08:35:39;;;;;;;3.92;3.50;;;15.90;99.90;;;16.84;52.38;97636.78;5234414;28;20201;-61
2023/03/22 08:38:12;;;;;;;3.50;3.20;;;16.10;98.90;;;17.03;51.38;97633.03;5230127;28;20312;-61
2023/03/22 08:40:47;;;;;;;3.15;2.95;;;16.30;98.20;;;17.11;51.25;97639.28;5241901;28;20878;-60
2023/03/22 08:43:20;;;;;;;3.10;2.47;;;16.40;97.40;;;17.39;50.13;97641.72;5240930;28;20732;-60
2023/03/22 08:45:53;;;;;;;2.92;2.30;;;16.70;97.00;;;17.64;48.75;97638.06;5247018;28;20204;-61
2023/03/22 08:48:27;;;;;;;2.40;2.20;;;16.90;96.00;;;17.65;48.02;97642.41;5241251;28;20483;-61
2023/03/22 08:51:03;;;;;;;2.92;2.60;;;17.00;95.50;;;17.76;48.26;97640.97;5235967;28;20231;-61
2023/03/22 08:53:36;;;;;;;2.80;2.53;;;17.00;95.20;;;17.70;47.16;97648.56;5228848;28;20298;-61
2023/03/22 08:56:10;;;;;;;3.03;2.42;;;17.10;94.50;;;17.80;47.66;97637.66;5240671;28;20204;-61
2023/03/22 08:58:45;;;;;;;2.38;2.00;;;17.10;95.00;;;17.80;46.60;97635.09;5246317;28;20549;-62
2023/03/22 09:01:19;;;;;;;2.40;2.20;;;17.20;94.00;;;17.93;46.23;97634.53;5230553;28;20205;-61
2023/03/22 09:03:53;;;;;;;1.77;1.67;;;17.20;93.80;;;18.06;45.35;97627.09;5236798;28;20681;-62
2023/03/22 09:06:27;;;;;;;2.42;1.83;;;17.40;93.00;;;18.18;44.27;97624.78;5238108;28;20232;-60
2023/03/22 09:09:00;;;;;;;2.13;1.70;;;17.60;92.20;;;18.21;44.35;97625.72;5237999;28;20686;-61
2023/03/22 09:11:36;;;;;;;1.98;1.85;;;17.60;92.00;;;18.28;43.90;97618.97;5242788;28;20205;-61
2023/03/22 09:14:09;;;;;;;1.67;1.58;;;17.70;91.60;;;18.11;44.12;97617.69;5254581;28;20219;-61
2023/03/22 09:16:42;;;;;;;2.05;1.88;;;17.60;91.90;;;18.28;43.62;97616.38;5246440;28;20250;-61
2023/03/22 09:19:15;;;;;;;1.77;1.65;;;17.70;91.50;;;18.43;43.83;97619.31;5236217;28;20200;-62
2023/03/22 09:21:50;;;;;;;2.97;1.80;;;17.80;91.80;;;18.45;43.58;97615.03;5242885;28;20208;-61
2023/03/22 09:24:23;;;;;;;1.83;1.60;;;17.80;91.50;;;18.30;43.33;97614.69;5237795;28;20244;-61
2023/03/22 09:26:57;;;;;;;1.65;1.55;;;17.70;91.10;;;18.34;43.04;97616.53;5227296;28;20207;-61
2023/03/22 09:29:31;;;;;;;1.95;1.50;;;17.80;90.90;;;18.39;42.97;97614.03;5231008;28;20224;-61
2023/03/22 09:32:05;;;;;;;1.52;1.42;;;17.80;90.70;;;18.40;42.97;97608.91;5244165;28;20211;-61
2023/03/22 09:34:38;;;;;;;1.65;1.55;;;17.90;90.80;;;18.42;44.00;97609.78;5237355;28;20229;-61
2023/03/22 09:37:13;;;;;;;1.70;1.60;;;17.90;91.10;;;18.55;44.05;97599.72;5226294;28;20201;-61
2023/03/22 09:39:46;;;;;;;1.48;1.45;;;17.90;91.50;;;18.71;44.02;97601.78;5226188;28;20280;-62
2023/03/22 09:42:31;;;;;;;1.63;1.52;;;18.10;91.60;;;18.62;43.73;97599.00;5232542;28;20209;-61
2023/03/22 09:45:07;;;;;;;1.55;1.45;;;17.90;91.50;;;18.77;43.59;97596.78;5249243;28;20303;-61
2023/03/22 09:47:44;;;;;;;2.10;1.50;;;18.10;91.40;;;18.76;43.10;97589.84;5234272;28;20203;-61
2023/03/22 09:50:22;;;;;;;1.60;1.50;;;18.20;90.90;;;18.71;43.60;97583.66;5233062;28;20550;-62
2023/03/22 09:52:56;;;;;;;1.85;1.75;;;18.20;91.00;;;18.63;44.08;97586.09;5232812;28;20203;-61
2023/03/22 09:55:37;;;;;;;1.80;1.70;;;18.10;91.30;;;18.56;43.54;97586.81;5235288;28;20207;-61
2023/03/22 09:58:21;;;;;;;1.40;1.30;;;18.00;91.00;;;18.65;43.08;97583.53;5246078;28;20249;-62
2023/03/22 10:01:00;;;;;;;3.42;1.27;;;18.10;90.80;;;18.67;44.14;97574.09;5233911;28;20681;-61
2023/03/22 10:04:06;;;;;;;2.83;1.60;;;18.10;91.20;;;18.70;42.85;97579.31;5230459;28;20618;-61
2023/03/22 10:06:42;;;;;;;1.95;1.55;;;18.10;90.60;;;18.63;42.91;97570.56;5236795;28;20192;-61
2023/03/22 10:09:23;;;;;;;2.22;1.67;;;18.10;90.60;;;18.65;43.81;97573.19;5229539;28;20313;-61
2023/03/22 10:12:03;;;;;;;2.35;1.50;;;18.00;91.00;;;18.62;43.70;97570.53;5234705;28;20567;-62
2023/03/22 10:14:41;;;;;;;1.77;1.42;;;18.10;90.70;;;18.45;43.53;97558.09;5226868;28;20256;-63
2023/03/22 10:17:18;;;;;;;1.90;1.33;;;17.90;90.80;;;18.49;43.83;97559.06;5240296;28;20235;-62
2023/03/22 10:19:55;;;;;;;1.83;1.73;;;18.00;90.60;;;18.43;43.49;97561.53;5239908;28;20196;-60
2023/03/22 10:22:33;;;;;;;1.90;1.80;;;17.90;90.70;;;18.50;44.18;97559.94;5226420;28;20200;-61
2023/03/22 10:25:09;;;;;;;2.03;1.92;;;18.00;91.20;;;18.52;44.07;97553.06;5231414;28;20602;-61
2023/03/22 10:27:42;;;;;;;2.20;1.90;;;18.10;90.90;;;18.36;43.56;97551.88;5232174;28;20232;-61
2023/03/22 10:30:21;;;;;;;1.80;1.70;;;17.90;90.50;;;18.39;44.42;97552.78;5249750;28;20642;-61
2023/03/22 10:33:01;;;;;;;2.13;1.80;;;17.90;91.10;;;18.36;43.99;97544.97;5232940;28;20236;-61
2023/03/22 10:35:35;;;;;;;2.17;1.98;;;17.80;90.90;;;18.42;43.90;97539.91;5234034;28;20201;-62
2023/03/22 10:38:19;;;;;;;2.00;1.90;;;17.90;91.00;;;18.65;43.18;97534.34;5248985;28;20200;-62
2023/03/22 10:40:58;;;;;;;1.75;1.65;;;18.10;90.50;;;18.63;44.72;97536.06;5245586;28;20678;-61
2023/03/22 10:43:35;;;;;;;1.80;1.70;;;18.10;91.50;;;18.70;43.41;97532.72;5251737;28;20683;-62
2023/03/22 10:46:16;;;;;;;1.80;1.70;;;18.10;90.60;;;18.96;43.37;97519.44;5238846;28;20286;-62
2023/03/22 10:48:53;;;;;;;2.28;2.00;;;18.30;90.70;;;18.95;42.18;97517.69;5243389;28;20284;-62
2023/03/22 10:51:32;;;;;;;1.70;1.60;;;18.40;89.40;;;18.97;42.71;97526.34;5224596;28;20203;-62
2023/03/22 10:54:05;;;;;;;1.70;1.60;;;18.50;89.70;;;18.98;41.78;97526.38;5237015;28;20761;-61
2023/03/22 10:56:40;;;;;;;1.73;1.60;;;18.40;89.00;;;19.02;41.15;97523.00;5233862;28;20209;-62
2023/03/22 10:59:42;;;;;;;1.65;1.55;;;18.40;87.80;;;18.94;41.24;97521.13;5229917;28;20653;-62
2023/03/22 11:02:22;;;;;;;1.88;1.45;;;18.40;87.60;;;18.96;41.19;97519.44;5235567;28;20601;-68